Atlantic Nyala — 9HYD9 — position and weather

sailwx.info

Track history (hours):
 
Tides and Currents Weather Stations Pressure Air Temp Water Temp Dewpoint Dewpoint Depression Visibility Wind Speed Wind Dir Waves Ship Positions

Atlantic Nyala

Last reported at 2014-Sep-19 11:07 UTC. Time now 2014-Sep-22 22:20 UTC.
Position N 50°14' W 001°32'.

Length 173 m; draft 9 m.

Type: Ship. MMSI: 249692000.

Date/timePositionNaut miles runAvg speedWind from/ knotsBaromVisibWave heightAir tempDewpointWater temp
2014-Sep-19 11:07N 50°14' W 001°32'1217.0
2014-Sep-19 10:24N 50°18' W 001°14'1816.7
2014-Sep-19 09:20N 50°22' W 000°47'1215.8
2014-Sep-19 08:33N 50°26' W 000°29'1515.3
2014-Sep-19 07:33N 50°30' W 000°06'1514.9
2014-Sep-19 06:33N 50°35' E 000°17'1514.6
2014-Sep-19 05:33N 50°39' E 000°39'1514.8
2014-Sep-19 04:33N 50°47' E 000°58'1615.8
2014-Sep-19 03:34N 50°56' E 001°19'1716.6
2014-Sep-19 02:34N 51°07' E 001°37'1615.8
2014-Sep-19 01:34N 51°20' E 001°53'1515.1
2014-Sep-19 00:33N 51°33' E 002°05'1414.4
2014-Sep-18 23:33N 51°44' E 002°19'1414.2
2014-Sep-18 22:34N 51°55' E 002°35'1414.0
2014-Sep-18 21:33N 52°05' E 002°50'1413.9
2014-Sep-18 20:33N 52°17' E 003°02'1914.9
2014-Sep-18 19:16N 52°36' E 003°08'1815.7
2014-Sep-18 18:06N 52°54' E 003°14'916.0
2014-Sep-18 17:32N 53°02' E 003°19'1615.9
2014-Sep-18 16:33N 53°17' E 003°26'1915.4
2014-Sep-18 15:18N 53°35' E 003°37'4114.3
2014-Sep-18 12:27N 54°06' E 004°22'30914.5
2014-Sep-17 15:11N 57°48' E 010°46'1015.3
2014-Sep-17 14:33N 57°42' E 010°59'1515.2
2014-Sep-17 13:33N 57°32' E 011°20'1514.7
2014-Sep-17 12:33N 57°19' E 011°33'1514.8
2014-Sep-17 11:33N 57°05' E 011°42'1514.5
2014-Sep-17 10:33N 56°51' E 011°51'1413.6
2014-Sep-17 09:34N 56°38' E 011°46'1514.7
2014-Sep-17 08:34N 56°25' E 011°33'1514.4
2014-Sep-17 07:29N 56°12' E 011°18'1213.2
2014-Sep-17 06:33N 56°01' E 011°06'1413.6
2014-Sep-17 05:31N 55°50' E 010°51'1010.8
2014-Sep-17 04:33N 55°40' E 010°47'9 9.4
2014-Sep-17 03:33N 55°31' E 010°52'9 8.9
2014-Sep-17 02:33N 55°24' E 011°01'1010.0
2014-Sep-17 01:33N 55°14' E 011°06'10 9.5
2014-Sep-17 00:29N 55°04' E 011°03'8 8.7
2014-Sep-16 23:33N 54°57' E 010°57'1110.8
2014-Sep-16 22:33N 54°47' E 010°49'9 9.3
2014-Sep-16 21:33N 54°38' E 010°54'1212.1
2014-Sep-16 20:33N 54°35' E 011°14'1313.2
2014-Sep-16 19:33N 54°29' E 011°35'1515.0
2014-Sep-16 18:33N 54°26' E 011°60'1313.0
2014-Sep-16 17:33N 54°35' E 012°16'1514.6
2014-Sep-16 16:33N 54°45' E 012°34'1514.3
2014-Sep-16 15:32N 54°51' E 012°57'1514.9
2014-Sep-16 14:33N 54°55' E 013°21'1514.8
2014-Sep-16 13:34N 55°01' E 013°45'1414.4
2014-Sep-16 12:33N 55°06' E 014°09'1414.4
2014-Sep-16 11:34N 55°17' E 014°24'1514.6
2014-Sep-16 10:34N 55°28' E 014°42'1514.6
2014-Sep-16 09:34N 55°35' E 015°05'1514.6
2014-Sep-16 08:33N 55°42' E 015°28'1614.8
2014-Sep-16 07:27N 55°50' E 015°53'1314.6
2014-Sep-16 06:33N 55°56' E 016°13'1514.9
2014-Sep-16 05:33N 56°05' E 016°35'1514.5
2014-Sep-16 04:33N 56°13' E 016°56'1414.4
2014-Sep-16 03:33N 56°22' E 017°17'1414.5
2014-Sep-16 02:33N 56°31' E 017°38'1414.4
2014-Sep-16 01:33N 56°39' E 017°59'1514.6
2014-Sep-16 00:33N 56°48' E 018°19'1414.5
2014-Sep-15 23:33N 56°59' E 018°36'1514.5
2014-Sep-15 22:33N 57°11' E 018°53'1414.6
2014-Sep-15 21:34N 57°23' E 019°09'17414.4
2014-Sep-15 09:31N 59°34' E 022°46'1414.4
2014-Sep-15 08:34N 59°38' E 023°13'1414.2
2014-Sep-15 07:33N 59°41' E 023°40'1414.2
2014-Sep-15 06:33N 59°45' E 024°07'1414.4
2014-Sep-15 05:33N 59°49' E 024°35'1514.9
2014-Sep-15 04:33N 59°52' E 025°04'1515.1
2014-Sep-15 03:33N 59°54' E 025°33'1514.9
2014-Sep-15 02:33N 59°58' E 026°03'1514.7
2014-Sep-15 01:33N 60°01' E 026°31'1514.7
2014-Sep-15 00:33N 59°60' E 027°00'1414.5
2014-Sep-14 23:33N 60°07' E 027°26'1813.7
2014-Sep-14 22:16N 60°10' E 028°00'6112.2
2014-Sep-14 17:14N 59°55' E 029°60'6 8.6
2014-Sep-14 16:33N 59°53' E 030°10'2 1.8
2014-Sep-14 15:32N 59°54' E 030°14'0 0.0
2014-Sep-14 14:32N 59°54' E 030°14'0 0.0
2014-Sep-14 13:32N 59°54' E 030°14'0 0.0
2014-Sep-14 12:32N 59°54' E 030°14'0 0.0
2014-Sep-14 11:32N 59°54' E 030°14'0 0.0
2014-Sep-14 10:32N 59°54' E 030°14'0 0.0
2014-Sep-14 09:32N 59°54' E 030°14'0 0.0
2014-Sep-14 08:32N 59°54' E 030°14'0 0.0
2014-Sep-14 07:29N 59°54' E 030°14'0 0.0
2014-Sep-14 06:32N 59°54' E 030°14'0 0.0
2014-Sep-14 05:32N 59°54' E 030°14'0 0.0
2014-Sep-14 04:32N 59°54' E 030°14'0 0.0
2014-Sep-14 03:32N 59°54' E 030°14'0 0.0
2014-Sep-14 02:32N 59°54' E 030°14'0 0.0
2014-Sep-14 01:32N 59°54' E 030°14'0 0.0
2014-Sep-13 21:29N 59°54' E 030°14'0 0.0
2014-Sep-13 20:29N 59°54' E 030°14'0 0.0
2014-Sep-13 19:32N 59°54' E 030°14'0 0.0
2014-Sep-13 18:32N 59°54' E 030°14'0 0.0
2014-Sep-13 17:32N 59°54' E 030°14'0 0.0
2014-Sep-13 16:29N 59°54' E 030°14'0 0.0
2014-Sep-13 15:14N 59°54' E 030°14'0 0.0
2014-Sep-13 14:32N 59°54' E 030°14'0 0.0
2014-Sep-13 13:32N 59°54' E 030°14'0 0.0
2014-Sep-13 12:26N 59°54' E 030°14'0 0.0
2014-Sep-13 11:29N 59°54' E 030°14'0 0.0
2014-Sep-13 10:29N 59°54' E 030°14'0 0.0
2014-Sep-13 09:14N 59°54' E 030°14'0 0.0
2014-Sep-13 08:29N 59°54' E 030°14'0 0.0
2014-Sep-13 07:32N 59°54' E 030°14'0 0.0
2014-Sep-13 06:32N 59°54' E 030°14'0 0.0
2014-Sep-13 05:32N 59°54' E 030°14'0 0.0
2014-Sep-13 04:32N 59°54' E 030°14'0 0.0
2014-Sep-13 03:32N 59°54' E 030°14'0 0.0
2014-Sep-13 02:23N 59°54' E 030°14'0 0.0
2014-Sep-13 01:32N 59°54' E 030°14'0 0.0
2014-Sep-13 00:32N 59°54' E 030°14'0 0.0
2014-Sep-12 23:29N 59°54' E 030°14'0 0.0
2014-Sep-12 22:32N 59°54' E 030°14'0 0.0
2014-Sep-12 21:32N 59°54' E 030°14'0 0.0
2014-Sep-12 20:32N 59°54' E 030°14'0 0.0
2014-Sep-12 19:32N 59°54' E 030°14'0 0.0
2014-Sep-12 18:32N 59°54' E 030°14'0 0.0
2014-Sep-12 17:32N 59°54' E 030°14'0 0.0
2014-Sep-12 16:32N 59°54' E 030°14'0 0.0
2014-Sep-12 15:32N 59°54' E 030°14'0 0.0
2014-Sep-12 04:32N 59°54' E 030°14'0 0.0
2014-Sep-12 03:17N 59°54' E 030°14'0 0.0
2014-Sep-12 02:29N 59°54' E 030°14'0 0.0
2014-Sep-12 01:32N 59°54' E 030°14'0 0.0
2014-Sep-12 00:08N 59°54' E 030°14'0 0.0
2014-Sep-11 23:32N 59°54' E 030°14'0 0.0
2014-Sep-11 22:32N 59°54' E 030°14'0 0.0
2014-Sep-11 21:32N 59°54' E 030°14'0 0.0
2014-Sep-11 20:32N 59°54' E 030°14'0 0.0
2014-Sep-11 19:29N 59°54' E 030°14'0 0.0
2014-Sep-11 18:32N 59°54' E 030°14'0 0.0
2014-Sep-11 14:05N 59°54' E 030°14'0 0.0
2014-Sep-11 13:32N 59°54' E 030°14'0 0.0
2014-Sep-11 12:32N 59°54' E 030°14'0 0.0
2014-Sep-11 11:32N 59°54' E 030°14'0 0.0
2014-Sep-11 07:14N 59°54' E 030°14'0 0.0
2014-Sep-11 06:23N 59°54' E 030°14'0 0.0
2014-Sep-11 05:20N 59°54' E 030°14'0 0.0
2014-Sep-11 04:29N 59°54' E 030°14'0 0.0
2014-Sep-11 03:32N 59°54' E 030°14'0 0.0
2014-Sep-11 02:26N 59°54' E 030°14'0 0.0
2014-Sep-11 01:32N 59°54' E 030°14'0 0.0
2014-Sep-11 00:32N 59°54' E 030°14'0 0.0
2014-Sep-10 23:32N 59°54' E 030°14'0 0.0
2014-Sep-10 22:32N 59°54' E 030°14'0 0.0
2014-Sep-10 21:23N 59°54' E 030°14'0 0.0
2014-Sep-10 20:32N 59°54' E 030°14'0 0.0
2014-Sep-10 19:32N 59°54' E 030°14'0 0.0
2014-Sep-10 18:32N 59°54' E 030°14'0 0.0
2014-Sep-10 16:29N 59°54' E 030°14'0 0.0
2014-Sep-10 07:32N 59°54' E 030°14'0 0.0
2014-Sep-10 05:05N 59°54' E 030°14'0 0.0
2014-Sep-10 04:32N 59°54' E 030°14'0 0.0
2014-Sep-10 03:32N 59°54' E 030°14'0 0.0
2014-Sep-10 02:32N 59°54' E 030°14'0 0.0
2014-Sep-10 01:32N 59°54' E 030°14'0 0.0
2014-Sep-10 00:32N 59°54' E 030°14'0 0.0
2014-Sep-09 23:32N 59°54' E 030°14'0 0.0
2014-Sep-09 22:32N 59°54' E 030°14'0 0.0
2014-Sep-09 21:32N 59°54' E 030°14'0 0.0
2014-Sep-09 12:26N 59°54' E 030°14'0 0.0
2014-Sep-09 11:32N 59°54' E 030°14'  
Track history (hours):
 
Tides and Currents Weather Stations Pressure Air Temp Water Temp Dewpoint Dewpoint Depression Visibility Wind Speed Wind Dir Waves Ship Positions

Atlantic Nyala

Last reported at 2014-Sep-19 11:07 UTC. Time now 2014-Sep-22 22:20 UTC.
Position N 50°14' W 001°32'.

Length 173 m; draft 9 m.

Type: Ship. MMSI: 249692000.

Date/timePositionNaut miles runAvg speedWind from/ knotsBaromVisibWave heightAir tempDewpointWater temp
2014-Sep-19 11:07N 50°14' W 001°32'1217.0
2014-Sep-19 10:24N 50°18' W 001°14'1816.7
2014-Sep-19 09:20N 50°22' W 000°47'1215.8
2014-Sep-19 08:33N 50°26' W 000°29'1515.3
2014-Sep-19 07:33N 50°30' W 000°06'1514.9
2014-Sep-19 06:33N 50°35' E 000°17'1514.6
2014-Sep-19 05:33N 50°39' E 000°39'1514.8
2014-Sep-19 04:33N 50°47' E 000°58'1615.8
2014-Sep-19 03:34N 50°56' E 001°19'1716.6
2014-Sep-19 02:34N 51°07' E 001°37'1615.8
2014-Sep-19 01:34N 51°20' E 001°53'1515.1
2014-Sep-19 00:33N 51°33' E 002°05'1414.4
2014-Sep-18 23:33N 51°44' E 002°19'1414.2
2014-Sep-18 22:34N 51°55' E 002°35'1414.0
2014-Sep-18 21:33N 52°05' E 002°50'1413.9
2014-Sep-18 20:33N 52°17' E 003°02'1914.9
2014-Sep-18 19:16N 52°36' E 003°08'1815.7
2014-Sep-18 18:06N 52°54' E 003°14'916.0
2014-Sep-18 17:32N 53°02' E 003°19'1615.9
2014-Sep-18 16:33N 53°17' E 003°26'1915.4
2014-Sep-18 15:18N 53°35' E 003°37'4114.3
2014-Sep-18 12:27N 54°06' E 004°22'30914.5
2014-Sep-17 15:11N 57°48' E 010°46'1015.3
2014-Sep-17 14:33N 57°42' E 010°59'1515.2
2014-Sep-17 13:33N 57°32' E 011°20'1514.7
2014-Sep-17 12:33N 57°19' E 011°33'1514.8
2014-Sep-17 11:33N 57°05' E 011°42'1514.5
2014-Sep-17 10:33N 56°51' E 011°51'1413.6
2014-Sep-17 09:34N 56°38' E 011°46'1514.7
2014-Sep-17 08:34N 56°25' E 011°33'1514.4
2014-Sep-17 07:29N 56°12' E 011°18'1213.2
2014-Sep-17 06:33N 56°01' E 011°06'1413.6
2014-Sep-17 05:31N 55°50' E 010°51'1010.8
2014-Sep-17 04:33N 55°40' E 010°47'9 9.4
2014-Sep-17 03:33N 55°31' E 010°52'9 8.9
2014-Sep-17 02:33N 55°24' E 011°01'1010.0
2014-Sep-17 01:33N 55°14' E 011°06'10 9.5
2014-Sep-17 00:29N 55°04' E 011°03'8 8.7
2014-Sep-16 23:33N 54°57' E 010°57'1110.8
2014-Sep-16 22:33N 54°47' E 010°49'9 9.3
2014-Sep-16 21:33N 54°38' E 010°54'1212.1
2014-Sep-16 20:33N 54°35' E 011°14'1313.2
2014-Sep-16 19:33N 54°29' E 011°35'1515.0
2014-Sep-16 18:33N 54°26' E 011°60'1313.0
2014-Sep-16 17:33N 54°35' E 012°16'1514.6
2014-Sep-16 16:33N 54°45' E 012°34'1514.3
2014-Sep-16 15:32N 54°51' E 012°57'1514.9
2014-Sep-16 14:33N 54°55' E 013°21'1514.8
2014-Sep-16 13:34N 55°01' E 013°45'1414.4
2014-Sep-16 12:33N 55°06' E 014°09'1414.4
2014-Sep-16 11:34N 55°17' E 014°24'1514.6
2014-Sep-16 10:34N 55°28' E 014°42'1514.6
2014-Sep-16 09:34N 55°35' E 015°05'1514.6
2014-Sep-16 08:33N 55°42' E 015°28'1614.8
2014-Sep-16 07:27N 55°50' E 015°53'1314.6
2014-Sep-16 06:33N 55°56' E 016°13'1514.9
2014-Sep-16 05:33N 56°05' E 016°35'1514.5
2014-Sep-16 04:33N 56°13' E 016°56'1414.4
2014-Sep-16 03:33N 56°22' E 017°17'1414.5
2014-Sep-16 02:33N 56°31' E 017°38'1414.4
2014-Sep-16 01:33N 56°39' E 017°59'1514.6
2014-Sep-16 00:33N 56°48' E 018°19'1414.5
2014-Sep-15 23:33N 56°59' E 018°36'1514.5
2014-Sep-15 22:33N 57°11' E 018°53'1414.6
2014-Sep-15 21:34N 57°23' E 019°09'17414.4
2014-Sep-15 09:31N 59°34' E 022°46'1414.4
2014-Sep-15 08:34N 59°38' E 023°13'1414.2
2014-Sep-15 07:33N 59°41' E 023°40'1414.2
2014-Sep-15 06:33N 59°45' E 024°07'1414.4
2014-Sep-15 05:33N 59°49' E 024°35'1514.9
2014-Sep-15 04:33N 59°52' E 025°04'1515.1
2014-Sep-15 03:33N 59°54' E 025°33'1514.9
2014-Sep-15 02:33N 59°58' E 026°03'1514.7
2014-Sep-15 01:33N 60°01' E 026°31'1514.7
2014-Sep-15 00:33N 59°60' E 027°00'1414.5
2014-Sep-14 23:33N 60°07' E 027°26'1813.7
2014-Sep-14 22:16N 60°10' E 028°00'6112.2
2014-Sep-14 17:14N 59°55' E 029°60'6 8.6
2014-Sep-14 16:33N 59°53' E 030°10'2 1.8
2014-Sep-14 15:32N 59°54' E 030°14'0 0.0
2014-Sep-14 14:32N 59°54' E 030°14'0 0.0
2014-Sep-14 13:32N 59°54' E 030°14'0 0.0
2014-Sep-14 12:32N 59°54' E 030°14'0 0.0
2014-Sep-14 11:32N 59°54' E 030°14'0 0.0
2014-Sep-14 10:32N 59°54' E 030°14'0 0.0
2014-Sep-14 09:32N 59°54' E 030°14'0 0.0
2014-Sep-14 08:32N 59°54' E 030°14'0 0.0
2014-Sep-14 07:29N 59°54' E 030°14'0 0.0
2014-Sep-14 06:32N 59°54' E 030°14'0 0.0
2014-Sep-14 05:32N 59°54' E 030°14'0 0.0
2014-Sep-14 04:32N 59°54' E 030°14'0 0.0
2014-Sep-14 03:32N 59°54' E 030°14'0 0.0
2014-Sep-14 02:32N 59°54' E 030°14'0 0.0
2014-Sep-14 01:32N 59°54' E 030°14'0 0.0
2014-Sep-13 21:29N 59°54' E 030°14'0 0.0
2014-Sep-13 20:29N 59°54' E 030°14'0 0.0
2014-Sep-13 19:32N 59°54' E 030°14'0 0.0
2014-Sep-13 18:32N 59°54' E 030°14'0 0.0
2014-Sep-13 17:32N 59°54' E 030°14'0 0.0
2014-Sep-13 16:29N 59°54' E 030°14'0 0.0
2014-Sep-13 15:14N 59°54' E 030°14'0 0.0
2014-Sep-13 14:32N 59°54' E 030°14'0 0.0
2014-Sep-13 13:32N 59°54' E 030°14'0 0.0
2014-Sep-13 12:26N 59°54' E 030°14'0 0.0
2014-Sep-13 11:29N 59°54' E 030°14'0 0.0
2014-Sep-13 10:29N 59°54' E 030°14'0 0.0
2014-Sep-13 09:14N 59°54' E 030°14'0 0.0
2014-Sep-13 08:29N 59°54' E 030°14'0 0.0
2014-Sep-13 07:32N 59°54' E 030°14'0 0.0
2014-Sep-13 06:32N 59°54' E 030°14'0 0.0
2014-Sep-13 05:32N 59°54' E 030°14'0 0.0
2014-Sep-13 04:32N 59°54' E 030°14'0 0.0
2014-Sep-13 03:32N 59°54' E 030°14'0 0.0
2014-Sep-13 02:23N 59°54' E 030°14'0 0.0
2014-Sep-13 01:32N 59°54' E 030°14'0 0.0
2014-Sep-13 00:32N 59°54' E 030°14'0 0.0
2014-Sep-12 23:29N 59°54' E 030°14'0 0.0
2014-Sep-12 22:32N 59°54' E 030°14'0 0.0
2014-Sep-12 21:32N 59°54' E 030°14'0 0.0
2014-Sep-12 20:32N 59°54' E 030°14'0 0.0
2014-Sep-12 19:32N 59°54' E 030°14'0 0.0
2014-Sep-12 18:32N 59°54' E 030°14'0 0.0
2014-Sep-12 17:32N 59°54' E 030°14'0 0.0
2014-Sep-12 16:32N 59°54' E 030°14'0 0.0
2014-Sep-12 15:32N 59°54' E 030°14'0 0.0
2014-Sep-12 04:32N 59°54' E 030°14'0 0.0
2014-Sep-12 03:17N 59°54' E 030°14'0 0.0
2014-Sep-12 02:29N 59°54' E 030°14'0 0.0
2014-Sep-12 01:32N 59°54' E 030°14'0 0.0
2014-Sep-12 00:08N 59°54' E 030°14'0 0.0
2014-Sep-11 23:32N 59°54' E 030°14'0 0.0
2014-Sep-11 22:32N 59°54' E 030°14'0 0.0
2014-Sep-11 21:32N 59°54' E 030°14'0 0.0
2014-Sep-11 20:32N 59°54' E 030°14'0 0.0
2014-Sep-11 19:29N 59°54' E 030°14'0 0.0
2014-Sep-11 18:32N 59°54' E 030°14'0 0.0
2014-Sep-11 14:05N 59°54' E 030°14'0 0.0
2014-Sep-11 13:32N 59°54' E 030°14'0 0.0
2014-Sep-11 12:32N 59°54' E 030°14'0 0.0
2014-Sep-11 11:32N 59°54' E 030°14'0 0.0
2014-Sep-11 07:14N 59°54' E 030°14'0 0.0
2014-Sep-11 06:23N 59°54' E 030°14'0 0.0
2014-Sep-11 05:20N 59°54' E 030°14'0 0.0
2014-Sep-11 04:29N 59°54' E 030°14'0 0.0
2014-Sep-11 03:32N 59°54' E 030°14'0 0.0
2014-Sep-11 02:26N 59°54' E 030°14'0 0.0
2014-Sep-11 01:32N 59°54' E 030°14'0 0.0
2014-Sep-11 00:32N 59°54' E 030°14'0 0.0
2014-Sep-10 23:32N 59°54' E 030°14'0 0.0
2014-Sep-10 22:32N 59°54' E 030°14'0 0.0
2014-Sep-10 21:23N 59°54' E 030°14'0 0.0
2014-Sep-10 20:32N 59°54' E 030°14'0 0.0
2014-Sep-10 19:32N 59°54' E 030°14'0 0.0
2014-Sep-10 18:32N 59°54' E 030°14'0 0.0
2014-Sep-10 16:29N 59°54' E 030°14'0 0.0
2014-Sep-10 07:32N 59°54' E 030°14'0 0.0
2014-Sep-10 05:05N 59°54' E 030°14'0 0.0
2014-Sep-10 04:32N 59°54' E 030°14'0 0.0
2014-Sep-10 03:32N 59°54' E 030°14'0 0.0
2014-Sep-10 02:32N 59°54' E 030°14'0 0.0
2014-Sep-10 01:32N 59°54' E 030°14'0 0.0
2014-Sep-10 00:32N 59°54' E 030°14'0 0.0
2014-Sep-09 23:32N 59°54' E 030°14'0 0.0
2014-Sep-09 22:32N 59°54' E 030°14'0 0.0
2014-Sep-09 21:32N 59°54' E 030°14'0 0.0
2014-Sep-09 12:26N 59°54' E 030°14'0 0.0
2014-Sep-09 11:32N 59°54' E 030°14'  

Dump ship's entire track history